Aérodrome :
LOGIN :

S'inscrire | Disclaimer

   EN    FR    IT 

 










Légende :    VFR   VFR Marginal   IFR   IFR Intensif   IFR Très Intensif
Visi : 
Plafond : 
>= 8 km
>= 3000ft
5 à 8 km
1000 à 3000 ft
1500m à 5 km
500 à 1000 ft
800 à 1500m
200 à 500 ft
< 800m
< 200 ft
Symboles :   Orages  Brouillard  Fortes neiges  Fortes précipitations  Vent > 20 kt
SIGMETs :   Divers  Orages  Givrage  Turbulence  Onde Orograph.  Cendres Volcan.






- Altitude de l'aérodrome : 1187 ft


LIBV - Gioia del Colle Bari

DERNIER METAR :
  • 250055Z VRB01KT CAVOK 20/15 Q1012 RMK FEW FEW200 VIS MIN 9999 WIND THR32 10003KT WIND THR14 11003KT BLU

METARs EXPIRÉS :
  • 242355Z 19003KT CAVOK 21/15 Q1013 RMK SCT SCT200 VIS MIN 9999 WIND THR32216004KT WIND THR14 21004KT BLU
  • 242255Z VRB01KT CAVOK 22/15 Q1013
  • 242055Z 17006KT CAVOK 23/15 Q1013 RMK SCT FEW100 SCT200 VIS MIN 9999 WIND THR32 18007KT WIND THR14 20004KT BLU

TAF TAF LIBV
Valide du 25 à 00h jusqu'au 25 à 09h UTC


242300Z 2500/2509 VRB03KT CAVOK
BECMG 2503/2506 20010KT
PROB40
TEMPO 2505/2607 7000 RA SCT015



MET'MAP, la Météo Aéronautique d'un coup d'oeil ! - Copyright ORBIFLY Décembre 2007 - Disclaimer

ORBIFLY MET'MAP TEAM :

Programmation & Développement : Alexandra Zaïnal
Sur une idée originale de : Baudouin d'Aumeries
Soutien technique & logistique : Manuel Goepfert
Assistance : Marc-Olivier Méhu




SOURCES & CREDITS :

   NOAA